Pittsburgh, Pennsylvania
Traffic Map
Current Weather Conditions
Pittsburgh, Pennsylvania
Few Clouds
Few Clouds
18°
Feels Like: 18°
Wind Chill: 18° Ceiling: Unl
Heat Index: 18° Visibility: 10mi
Dew Point: Wind: 20mph
Humidity: 52% Direction: 230° (SW)
Pressure: 29.82in Gusts: 28mph
Raw Report DataKAGC 251753Z 23017G24KT 10SM FEW055 18/08 A2982 RMK AO2 SLP102 T01780078 10178 20089 58035
Traffic Incident Summary
Active as of:
Severity:
Category:
InformationThere was an issue retrieving the traffic information for this location. Please try a different location or try again shortly.
Advertisements
Track Severe Weather on mobile